Time;durP1;ratioP1;P1;durP2;ratioP2;P2;SDS_P1;SDS_P2;PMS_P1;PMS_P2;Temp;Humidity;BMP_temperature;BMP_pressure;BME280_temperature;BME280_humidity;BME280_pressure;Samples;Min_cycle;Max_cycle;Signal;HPM_P1;HPM_P2
2024/01/12 00:00:20;;;;;;;2.80;2.47;;;;;;;-6.04;100.00;97092.06;1031073;28;20675;-72
2024/01/12 00:00:50;;;;;;;5.18;3.10;;;;;;;-6.04;100.00;97086.94;1031452;28;20061;-71
2024/01/12 00:01:20;;;;;;;0.70;0.70;;;;;;;-6.02;100.00;97091.00;1034693;28;20032;-71
2024/01/12 00:01:54;;;;;;;4.63;4.22;;;;;;;-6.06;100.00;97084.53;1030963;28;20550;-71
2024/01/12 00:02:24;;;;;;;3.52;2.14;;;;;;;-6.00;100.00;97083.19;1027573;28;20023;-72
2024/01/12 00:02:55;;;;;;;3.03;2.75;;;;;;;-6.02;100.00;97091.00;1022533;28;20039;-71
2024/01/12 00:03:25;;;;;;;2.72;2.53;;;;;;;-6.00;100.00;97088.31;1026634;28;20062;-71
2024/01/12 00:03:56;;;;;;;6.95;2.95;;;;;;;-6.00;100.00;97081.47;1023494;28;20784;-71
2024/01/12 00:04:26;;;;;;;5.47;4.97;;;;;;;-6.03;100.00;97086.84;1027763;28;20030;-71
2024/01/12 00:04:57;;;;;;;3.60;3.03;;;;;;;-6.09;100.00;97082.22;1030791;28;20034;-71
2024/01/12 00:05:27;;;;;;;2.50;2.33;;;;;;;-6.06;100.00;97084.53;1026822;28;20281;-71
2024/01/12 00:05:58;;;;;;;5.60;4.35;;;;;;;-6.10;100.00;97083.16;1030822;28;20069;-72
2024/01/12 00:06:28;;;;;;;5.70;1.85;;;;;;;-6.11;100.00;97090.94;1030804;28;20038;-71
2024/01/12 00:06:59;;;;;;;3.78;3.05;;;;;;;-6.12;100.00;97089.31;1034795;28;20030;-71
2024/01/12 00:07:29;;;;;;;3.72;3.33;;;;;;;-6.16;100.00;97088.78;1038889;28;20045;-71
2024/01/12 00:07:59;;;;;;;3.25;2.95;;;;;;;-6.16;100.00;97088.78;1034099;28;20025;-70
2024/01/12 00:08:32;;;;;;;13.85;4.93;;;;;;;-6.16;100.00;97086.22;1034699;28;20382;-73
2024/01/12 00:09:03;;;;;;;11.90;4.13;;;;;;;-6.18;100.00;97093.19;1030682;28;20030;-70
2024/01/12 00:09:34;;;;;;;3.30;3.02;;;;;;;-6.17;100.00;97094.78;1026961;28;20281;-72
2024/01/12 00:10:05;;;;;;;4.00;3.55;;;;;;;-6.20;100.00;97089.97;1030811;28;20053;-70
2024/01/12 00:10:35;;;;;;;5.75;4.72;;;;;;;-6.18;100.00;97091.44;1027477;28;20042;-71
2024/01/12 00:11:08;;;;;;;2.17;2.03;;;;;;;-6.12;100.00;97084.22;1030617;28;20617;-70
2024/01/12 00:11:39;;;;;;;3.55;3.33;;;;;;;-6.18;100.00;97086.31;1026717;28;20070;-70
2024/01/12 00:12:09;;;;;;;19.10;4.60;;;;;;;-6.12;100.00;97081.66;1027532;28;20693;-72
2024/01/12 00:12:40;;;;;;;1.00;1.00;;;;;;;-6.15;100.00;97075.06;1027280;28;20031;-73
2024/01/12 00:13:10;;;;;;;5.60;3.20;;;;;;;-6.15;100.00;97069.16;1029922;28;20026;-71
2024/01/12 00:13:41;;;;;;;6.75;4.68;;;;;;;-6.14;100.00;97075.88;1022880;29;20459;-71
2024/01/12 00:14:12;;;;;;;0.13;0.13;;;;;;;-6.13;100.00;97072.41;1022892;28;20713;-71
2024/01/12 00:14:43;;;;;;;2.86;2.70;;;;;;;-6.13;100.00;97075.75;1028942;28;20030;-71
2024/01/12 00:15:13;;;;;;;3.50;3.13;;;;;;;-6.17;100.00;97079.47;1030693;28;20424;-71
2024/01/12 00:15:44;;;;;;;0.93;0.90;;;;;;;-6.23;100.00;97068.03;1034647;28;20038;-71
2024/01/12 00:16:14;;;;;;;1.77;1.67;;;;;;;-6.19;100.00;97084.72;1026802;28;20026;-72
2024/01/12 00:16:48;;;;;;;7.05;3.45;;;;;;;-6.21;100.00;97076.34;1026755;28;20467;-71
2024/01/12 00:17:18;;;;;;;2.18;1.98;;;;;;;-6.22;100.00;97090.06;1026895;28;20027;-72
2024/01/12 00:17:48;;;;;;;5.47;2.20;;;;;;;-6.19;100.00;97084.72;1026887;28;20046;-71
2024/01/12 00:18:19;;;;;;;2.33;2.15;;;;;;;-6.20;100.00;97084.84;1029877;28;20030;-71
2024/01/12 00:18:49;;;;;;;7.13;4.30;;;;;;;-6.18;100.00;97090.63;1031033;28;20038;-70
2024/01/12 00:19:20;;;;;;;6.30;4.95;;;;;;;-6.18;100.00;97094.00;1034157;28;20444;-72
2024/01/12 00:19:50;;;;;;;3.78;3.08;;;;;;;-6.17;100.00;97087.97;1034586;28;20038;-71
2024/01/12 00:20:21;;;;;;;4.22;3.90;;;;;;;-6.21;100.00;97078.09;1034944;28;20041;-71
2024/01/12 00:20:51;;;;;;;3.70;3.20;;;;;;;-6.14;100.00;97086.09;1034566;28;20038;-70
2024/01/12 00:21:22;;;;;;;13.00;4.95;;;;;;;-6.15;100.00;97089.56;1038585;28;20045;-71
2024/01/12 00:21:53;;;;;;;4.15;1.10;;;;;;;-6.12;100.00;97095.25;1038655;28;20060;-72
2024/01/12 00:22:24;;;;;;;4.72;4.34;;;;;;;-6.08;100.00;97091.50;1038729;28;20044;-69
2024/01/12 00:22:56;;;;;;;2.70;2.42;;;;;;;-6.05;100.00;97091.25;1039434;28;20064;-72
2024/01/12 00:23:26;;;;;;;2.34;2.24;;;;;;;-6.07;100.00;97093.13;1038991;28;20619;-71
2024/01/12 00:23:57;;;;;;;15.38;3.28;;;;;;;-6.02;100.00;97090.19;1038724;28;20034;-70
2024/01/12 00:24:27;;;;;;;1.13;1.13;;;;;;;-6.03;100.00;97083.47;1039107;28;20279;-71
2024/01/12 00:24:58;;;;;;;6.43;3.92;;;;;;;-6.14;100.00;97070.75;1037317;28;20064;-71
2024/01/12 00:25:28;;;;;;;1.83;1.73;;;;;;;-6.05;100.00;97090.44;1034973;28;20029;-72
2024/01/12 00:25:59;;;;;;;4.60;4.25;;;;;;;-6.04;100.00;97087.75;1037843;28;20540;-71
2024/01/12 00:26:29;;;;;;;9.30;5.10;;;;;;;-6.05;100.00;97093.81;1034621;28;20034;-72
2024/01/12 00:27:00;;;;;;;4.18;2.50;;;;;;;-6.03;100.00;97091.94;1035030;28;20033;-71
2024/01/12 00:27:30;;;;;;;6.32;4.13;;;;;;;-6.05;100.00;97091.25;1034933;28;20363;-73
2024/01/12 00:28:01;;;;;;;4.72;2.92;;;;;;;-6.04;100.00;97087.75;1034152;28;20621;-72
2024/01/12 00:28:32;;;;;;;2.15;1.95;;;;;;;-6.02;100.00;97090.19;1034796;28;20026;-70
2024/01/12 00:29:02;;;;;;;5.90;4.45;;;;;;;-6.07;100.00;97080.38;1034943;28;20124;-71
2024/01/12 00:29:33;;;;;;;1.65;1.55;;;;;;;-6.12;100.00;97085.03;1039119;28;20303;-70
2024/01/12 00:30:03;;;;;;;2.70;2.50;;;;;;;-6.15;100.00;97072.50;1037234;28;20053;-70
2024/01/12 00:30:34;;;;;;;2.40;2.28;;;;;;;-6.10;100.00;97083.16;1038822;28;20032;-71
2024/01/12 00:31:04;;;;;;;5.13;2.15;;;;;;;-6.10;100.00;97084.88;1029621;28;20320;-70
2024/01/12 00:31:35;;;;;;;4.32;4.03;;;;;;;-6.05;100.00;97093.81;1022108;29;20062;-71
2024/01/12 00:32:05;;;;;;;0.73;0.73;;;;;;;-6.02;100.00;97091.00;1022657;28;20031;-71
2024/01/12 00:32:37;;;;;;;5.60;4.35;;;;;;;-6.05;100.00;97096.34;1027181;28;20026;-71
2024/01/12 00:33:08;;;;;;;5.78;2.83;;;;;;;-6.00;100.00;97094.25;1031544;28;20113;-71
2024/01/12 00:33:38;;;;;;;1.65;1.58;;;;;;;-5.98;100.00;97084.69;1034668;28;20284;-71
2024/01/12 00:34:09;;;;;;;3.50;2.50;;;;;;;-6.00;100.00;97094.25;1032915;28;20149;-71
2024/01/12 00:34:39;;;;;;;2.97;2.78;;;;;;;-5.97;100.00;97085.50;1026572;28;20033;-71
2024/01/12 00:35:09;;;;;;;4.20;3.80;;;;;;;-6.00;100.00;97091.69;1026912;28;20490;-71
2024/01/12 00:35:40;;;;;;;2.40;1.50;;;;;;;-6.10;100.00;97083.16;1030610;28;20581;-71
2024/01/12 00:36:10;;;;;;;2.75;2.55;;;;;;;-6.07;100.00;97093.13;1026536;28;20054;-72
2024/01/12 00:36:41;;;;;;;2.58;2.38;;;;;;;-6.04;100.00;97084.38;1026949;28;20027;-71
2024/01/12 00:37:11;;;;;;;2.92;2.72;;;;;;;-6.05;100.00;97088.69;1030445;28;20403;-70
2024/01/12 00:37:42;;;;;;;6.32;2.40;;;;;;;-6.05;100.00;97093.00;1030968;28;20034;-70
2024/01/12 00:38:13;;;;;;;2.05;1.95;;;;;;;-6.14;100.00;97075.88;1025812;28;20031;-71
2024/01/12 00:38:43;;;;;;;8.26;2.70;;;;;;;-6.09;100.00;97084.78;1030479;28;20035;-70
2024/01/12 00:39:17;;;;;;;9.20;4.88;;;;;;;-6.07;100.00;97082.91;1030957;28;20038;-71
2024/01/12 00:39:47;;;;;;;5.14;2.66;;;;;;;-6.06;100.00;97087.09;1034851;28;20033;-72
2024/01/12 00:40:18;;;;;;;2.55;2.33;;;;;;;-6.04;100.00;97085.19;1033649;28;20033;-71
2024/01/12 00:40:48;;;;;;;2.78;2.63;;;;;;;-6.10;100.00;97085.72;1023319;28;20027;-71
2024/01/12 00:41:19;;;;;;;3.88;2.08;;;;;;;-6.09;100.00;97084.78;1024806;28;20023;-72
2024/01/12 00:41:50;;;;;;;3.80;2.95;;;;;;;-6.15;100.00;97087.81;1026707;28;20042;-71
2024/01/12 00:42:24;;;;;;;2.90;2.70;;;;;;;-6.11;100.00;97085.84;1026693;28;20023;-73
2024/01/12 00:42:54;;;;;;;2.20;2.05;;;;;;;-6.10;100.00;97082.34;1027153;28;20421;-71
2024/01/12 00:43:27;;;;;;;3.35;2.85;;;;;;;-6.09;100.00;97081.41;1031725;28;20341;-71
2024/01/12 00:43:59;;;;;;;7.13;4.13;;;;;;;-6.08;100.00;97081.28;1030505;28;20034;-71
2024/01/12 00:44:29;;;;;;;4.28;3.50;;;;;;;-6.04;100.00;97090.31;1031239;28;20263;-70
2024/01/12 00:45:00;;;;;;;8.60;4.10;;;;;;;-6.03;100.00;97084.28;1034659;28;20264;-71
2024/01/12 00:45:30;;;;;;;5.13;4.75;;;;;;;-6.05;100.00;97088.69;1026697;28;20702;-71
2024/01/12 00:46:02;;;;;;;2.03;1.77;;;;;;;-6.05;100.00;97091.25;1030903;28;20092;-71
2024/01/12 00:46:32;;;;;;;5.55;2.90;;;;;;;-6.03;100.00;97089.41;1030371;28;20464;-69
2024/01/12 00:47:03;;;;;;;15.43;6.28;;;;;;;-6.10;100.00;97082.34;1030719;28;20304;-72
2024/01/12 00:47:33;;;;;;;2.78;1.38;;;;;;;-6.04;100.00;97087.75;1031169;28;20026;-72
2024/01/12 00:48:05;;;;;;;2.83;1.98;;;;;;;-6.01;100.00;97087.50;1030075;28;20066;-71
2024/01/12 00:48:35;;;;;;;4.32;4.00;;;;;;;-6.03;100.00;97091.16;1030502;28;20759;-71
2024/01/12 00:49:06;;;;;;;4.70;4.28;;;;;;;-6.03;100.00;97088.59;1030541;28;20030;-71
2024/01/12 00:49:36;;;;;;;2.35;2.22;;;;;;;-6.06;100.00;97081.16;1034662;28;20022;-71
2024/01/12 00:50:07;;;;;;;4.53;3.22;;;;;;;-6.01;100.00;97086.69;1034924;28;20056;-71
2024/01/12 00:50:37;;;;;;;3.28;3.00;;;;;;;-6.01;100.00;97086.69;1038249;28;20015;-71
2024/01/12 00:51:10;;;;;;;5.05;3.42;;;;;;;-6.01;100.00;97086.69;1034682;28;20025;-71
2024/01/12 00:51:40;;;;;;;1.00;1.00;;;;;;;-6.01;100.00;97091.81;1026672;28;20026;-71
2024/01/12 00:52:11;;;;;;;6.35;2.72;;;;;;;-6.01;100.00;97091.81;1026779;28;20326;-71
2024/01/12 00:52:41;;;;;;;5.22;3.45;;;;;;;-6.03;100.00;97081.72;1031032;28;20038;-71
2024/01/12 00:53:12;;;;;;;1.95;1.85;;;;;;;-5.92;100.00;97091.84;1034469;28;20030;-69
2024/01/12 00:53:42;;;;;;;5.90;2.97;;;;;;;-5.90;100.00;97094.28;1034662;28;20104;-71
2024/01/12 00:54:13;;;;;;;3.70;3.22;;;;;;;-5.88;100.00;97096.69;1038728;28;20024;-70
2024/01/12 00:54:43;;;;;;;6.45;5.95;;;;;;;-5.89;100.00;97092.53;1030618;28;20054;-71
2024/01/12 00:55:14;;;;;;;5.47;3.65;;;;;;;-5.90;100.00;97093.44;1030140;28;20105;-71
2024/01/12 00:55:45;;;;;;;3.30;3.08;;;;;;;-5.94;100.00;97088.63;1022570;28;20031;-71
2024/01/12 00:56:15;;;;;;;2.05;1.63;;;;;;;-5.90;100.00;97090.88;1026248;28;20269;-72
2024/01/12 00:56:46;;;;;;;2.55;1.45;;;;;;;-5.92;100.00;97086.72;1027006;28;20023;-71
2024/01/12 00:57:16;;;;;;;4.35;3.97;;;;;;;-5.95;100.00;97087.00;1030738;28;20011;-71
2024/01/12 00:57:47;;;;;;;2.50;2.33;;;;;;;-5.93;100.00;97085.16;1027576;28;20015;-70
2024/01/12 00:58:17;;;;;;;5.63;2.50;;;;;;;-6.02;100.00;97070.56;1030809;28;20073;-72
2024/01/12 00:58:47;;;;;;;3.70;2.78;;;;;;;-5.99;100.00;97084.84;1018482;29;20507;-71
2024/01/12 00:59:19;;;;;;;3.60;3.15;;;;;;;-5.98;100.00;97082.16;1016538;28;20416;-71
2024/01/12 00:59:49;;;;;;;3.03;2.03;;;;;;;-6.00;100.00;97078.94;1030831;28;20029;-71
2024/01/12 01:00:19;;;;;;;2.03;1.77;;;;;;;-5.96;100.00;97085.41;1030798;28;20268;-70
2024/01/12 01:00:50;;;;;;;7.60;2.88;;;;;;;-6.00;100.00;97071.25;1034750;28;20026;-71
2024/01/12 01:01:22;;;;;;;2.90;2.70;;;;;;;-5.99;100.00;97075.44;1038080;28;20550;-71
2024/01/12 01:01:57;;;;;;;3.55;2.00;;;;;;;-5.94;100.00;97088.63;1034520;28;20022;-70
2024/01/12 01:02:27;;;;;;;4.40;3.98;;;;;;;-5.93;100.00;97087.69;1030682;28;20363;-70
2024/01/12 01:03:01;;;;;;;7.13;3.65;;;;;;;-5.94;100.00;97090.38;1031348;28;20077;-72
2024/01/12 01:03:32;;;;;;;6.10;4.20;;;;;;;-5.96;100.00;97080.28;1031857;28;20612;-71
2024/01/12 01:04:03;;;;;;;2.05;1.95;;;;;;;-5.88;100.00;97091.59;1030565;28;20296;-70
2024/01/12 01:04:34;;;;;;;2.78;2.50;;;;;;;-5.88;100.00;97094.13;1026405;28;20019;-74
2024/01/12 01:05:05;;;;;;;8.20;4.18;;;;;;;-5.88;100.00;97094.94;1027123;28;20274;-71
2024/01/12 01:05:35;;;;;;;4.18;3.78;;;;;;;-5.85;100.00;97091.34;1030908;28;20041;-72
2024/01/12 01:06:06;;;;;;;5.50;4.97;;;;;;;-5.87;100.00;97093.19;1026659;28;20480;-71
2024/01/12 01:06:36;;;;;;;15.70;3.38;;;;;;;-5.89;100.00;97095.91;1030885;28;20058;-71
2024/01/12 01:07:07;;;;;;;3.97;2.90;;;;;;;-5.90;100.00;97093.44;1030910;28;20041;-70
2024/01/12 01:07:37;;;;;;;1.70;1.65;;;;;;;-5.86;100.00;97099.94;1034952;28;20018;-73
2024/01/12 01:08:08;;;;;;;0.73;0.73;;;;;;;-5.83;100.00;97097.16;1039178;28;20627;-71
2024/01/12 01:08:38;;;;;;;2.97;2.75;;;;;;;-5.83;100.00;97095.41;1040529;28;20029;-71
2024/01/12 01:09:08;;;;;;;4.22;3.92;;;;;;;-5.80;100.00;97105.38;1046243;28;20608;-71
2024/01/12 01:09:39;;;;;;;4.10;3.78;;;;;;;-5.84;100.00;97098.06;1042673;28;20040;-71
2024/01/12 01:10:10;;;;;;;6.55;4.47;;;;;;;-5.87;100.00;97099.13;1034480;28;20511;-71
2024/01/12 01:10:41;;;;;;;10.85;3.38;;;;;;;-5.81;100.00;97098.63;1030502;28;20125;-72
2024/01/12 01:11:12;;;;;;;6.13;5.00;;;;;;;-5.78;100.00;97102.66;1026746;28;20289;-71
2024/01/12 01:11:42;;;;;;;3.35;3.05;;;;;;;-5.81;100.00;97096.06;1027342;28;20904;-72
2024/01/12 01:12:13;;;;;;;4.40;3.97;;;;;;;-5.83;100.00;97095.41;1034920;28;20048;-71
2024/01/12 01:12:43;;;;;;;4.85;4.47;;;;;;;-5.82;100.00;97098.75;1030528;28;20030;-72
2024/01/12 01:13:14;;;;;;;6.40;4.63;;;;;;;-5.85;100.00;97097.25;1030715;28;20034;-71
2024/01/12 01:13:45;;;;;;;1.63;1.52;;;;;;;-5.85;100.00;97101.56;1031475;28;20093;-71
2024/01/12 01:14:18;;;;;;;2.17;2.03;;;;;;;-5.83;100.00;97097.16;1028622;28;20266;-71
2024/01/12 01:14:48;;;;;;;3.08;2.90;;;;;;;-5.87;100.00;97090.63;1027962;28;20034;-71
2024/01/12 01:15:19;;;;;;;2.15;2.05;;;;;;;-5.81;100.00;97102.91;1029287;28;20804;-71
2024/01/12 01:15:50;;;;;;;7.80;4.95;;;;;;;-5.83;100.00;97094.59;1035792;28;20034;-70
2024/01/12 01:16:21;;;;;;;2.50;2.28;;;;;;;-5.82;100.00;97093.63;1031957;28;20532;-70
2024/01/12 01:16:52;;;;;;;15.93;5.15;;;;;;;-5.80;100.00;97096.84;1031329;28;20691;-71
2024/01/12 01:17:24;;;;;;;2.88;2.63;;;;;;;-5.82;100.00;97096.19;1027597;28;20406;-71
2024/01/12 01:17:54;;;;;;;4.00;3.70;;;;;;;-5.80;100.00;97099.41;1023229;28;20283;-71
2024/01/12 01:18:25;;;;;;;5.30;4.13;;;;;;;-5.82;100.00;97103.88;1027163;28;20325;-71
2024/01/12 01:18:55;;;;;;;1.95;1.85;;;;;;;-5.98;100.00;97073.69;1027822;28;20581;-72
2024/01/12 01:19:26;;;;;;;5.80;5.18;;;;;;;-5.78;100.00;97105.22;1027313;28;20019;-71
2024/01/12 01:19:56;;;;;;;3.15;2.95;;;;;;;-5.82;100.00;97102.13;1027301;28;20027;-71
2024/01/12 01:20:27;;;;;;;2.60;1.55;;;;;;;-5.93;100.00;97089.44;1031378;28;20034;-71
2024/01/12 01:20:58;;;;;;;19.85;4.38;;;;;;;-5.74;100.00;97104.03;1031351;28;20042;-71
2024/01/12 01:21:29;;;;;;;11.23;3.92;;;;;;;-5.77;100.00;97109.38;1031482;28;20265;-71
2024/01/12 01:22:00;;;;;;;4.78;4.30;;;;;;;-5.77;100.00;97109.38;1031517;28;20038;-71
2024/01/12 01:22:33;;;;;;;1.33;1.23;;;;;;;-5.71;100.00;97106.34;1035354;28;20265;-73
2024/01/12 01:23:04;;;;;;;7.03;3.90;;;;;;;-5.70;100.00;97110.50;1028550;28;20497;-72
2024/01/12 01:23:34;;;;;;;2.92;2.78;;;;;;;-5.71;100.00;97109.69;1035347;28;20276;-72
2024/01/12 01:24:04;;;;;;;2.45;2.33;;;;;;;-5.68;100.00;97111.19;1035625;28;20070;-71
2024/01/12 01:24:35;;;;;;;3.30;2.95;;;;;;;-5.69;100.00;97112.94;1035875;28;20472;-71
2024/01/12 01:25:06;;;;;;;8.75;4.43;;;;;;;-5.71;100.00;97116.56;1039741;28;20032;-70
2024/01/12 01:25:37;;;;;;;3.05;2.83;;;;;;;-5.70;100.00;97115.63;1035498;28;20041;-71
2024/01/12 01:26:07;;;;;;;5.70;3.67;;;;;;;-5.72;100.00;97112.38;1035176;28;20783;-71
2024/01/12 01:26:38;;;;;;;2.20;2.03;;;;;;;-5.71;100.00;97114.00;1037186;28;20030;-72
2024/01/12 01:27:08;;;;;;;2.97;2.75;;;;;;;-5.75;100.00;97115.19;1032129;28;20125;-71
2024/01/12 01:27:38;;;;;;;3.08;2.50;;;;;;;-5.77;100.00;97111.94;1031119;28;20038;-72
2024/01/12 01:28:09;;;;;;;5.45;2.60;;;;;;;-5.73;100.00;97123.56;1025502;28;20558;-71
2024/01/12 01:28:40;;;;;;;1.15;1.15;;;;;;;-5.70;100.00;97115.63;1023457;28;20039;-72
2024/01/12 01:29:10;;;;;;;7.45;3.95;;;;;;;-5.65;100.00;97118.63;1035439;28;20084;-71
2024/01/12 01:29:41;;;;;;;2.63;2.42;;;;;;;-5.64;100.00;97117.66;1035492;28;20041;-71
2024/01/12 01:30:13;;;;;;;1.40;1.35;;;;;;;-5.61;100.00;97119.97;1039200;28;20041;-71
2024/01/12 01:30:44;;;;;;;2.08;1.98;;;;;;;-5.63;100.00;97116.75;1035260;28;20037;-72
2024/01/12 01:31:14;;;;;;;2.80;2.25;;;;;;;-5.66;100.00;97113.63;1031420;28;20815;-71
2024/01/12 01:31:45;;;;;;;6.43;4.47;;;;;;;-5.59;100.00;97120.66;1031226;28;20631;-71
2024/01/12 01:32:15;;;;;;;4.63;3.88;;;;;;;-5.60;100.00;97119.06;1027683;28;20141;-71
2024/01/12 01:32:47;;;;;;;3.55;3.25;;;;;;;-5.58;100.00;97124.84;1031278;28;20051;-73
2024/01/12 01:33:18;;;;;;;4.63;3.35;;;;;;;-5.87;100.00;97081.22;1031197;28;20631;-72
2024/01/12 01:33:48;;;;;;;2.30;2.17;;;;;;;-5.63;100.00;97126.97;1031489;28;20273;-71
2024/01/12 01:34:19;;;;;;;5.40;4.20;;;;;;;-5.61;100.00;97122.53;1027645;28;20056;-71
2024/01/12 01:34:49;;;;;;;4.07;3.67;;;;;;;-5.63;100.00;97116.75;1031739;28;20046;-71
2024/01/12 01:35:20;;;;;;;4.65;3.33;;;;;;;-5.62;100.00;97113.25;1035599;28;20080;-73
2024/01/12 01:35:50;;;;;;;3.88;2.17;;;;;;;-5.63;100.00;97121.88;1031273;28;20081;-71
2024/01/12 01:36:21;;;;;;;3.60;3.33;;;;;;;-5.63;100.00;97121.88;1031428;28;20030;-71
2024/01/12 01:36:51;;;;;;;6.07;4.18;;;;;;;-5.61;100.00;97119.16;1023102;28;20035;-70
2024/01/12 01:37:22;;;;;;;2.95;2.75;;;;;;;-5.60;100.00;97113.09;1027460;28;20061;-71
2024/01/12 01:37:52;;;;;;;6.15;5.63;;;;;;;-5.64;100.00;97114.31;1030872;28;20560;-71
2024/01/12 01:38:23;;;;;;;4.72;3.03;;;;;;;-5.64;100.00;97110.00;1028432;28;20035;-71
2024/01/12 01:38:53;;;;;;;13.75;5.30;;;;;;;-5.60;100.00;97111.38;1035240;28;20569;-71
2024/01/12 01:39:24;;;;;;;6.35;3.90;;;;;;;-5.66;100.00;97106.78;1031520;28;20075;-72
2024/01/12 01:39:54;;;;;;;2.22;2.03;;;;;;;-5.64;100.00;97109.19;1027253;28;20030;-72
2024/01/12 01:40:24;;;;;;;2.15;2.05;;;;;;;-5.58;100.00;97117.16;1026146;28;20034;-73
2024/01/12 01:40:55;;;;;;;3.72;3.42;;;;;;;-5.60;100.00;97113.09;1027219;28;20035;-71
2024/01/12 01:41:25;;;;;;;2.75;2.60;;;;;;;-5.59;100.00;97120.66;1024132;28;20027;-71
2024/01/12 01:41:56;;;;;;;2.83;2.63;;;;;;;-5.60;100.00;97116.50;1023408;29;20558;-72
2024/01/12 01:42:26;;;;;;;15.98;3.83;;;;;;;-5.70;100.00;97098.56;1024893;28;20034;-70
2024/01/12 01:42:57;;;;;;;12.48;7.40;;;;;;;-5.63;100.00;97114.19;1027177;28;20030;-71
2024/01/12 01:43:27;;;;;;;2.63;2.53;;;;;;;-5.72;100.00;97108.09;1027586;28;20038;-71
2024/01/12 01:43:58;;;;;;;2.95;2.75;;;;;;;-5.65;100.00;97113.50;1023484;28;20623;-71
2024/01/12 01:44:31;;;;;;;5.45;4.93;;;;;;;-5.65;100.00;97110.94;1027646;28;20050;-71
2024/01/12 01:45:02;;;;;;;2.10;2.00;;;;;;;-5.69;100.00;97109.59;1023955;28;20274;-71
2024/01/12 01:45:34;;;;;;;4.18;3.83;;;;;;;-5.71;100.00;97109.69;1024030;28;20430;-71
2024/01/12 01:46:05;;;;;;;4.22;2.70;;;;;;;-5.74;100.00;97099.72;1027462;28;20274;-71
2024/01/12 01:46:35;;;;;;;3.65;3.35;;;;;;;-5.66;100.00;97109.34;1027308;28;20262;-71
2024/01/12 01:47:06;;;;;;;4.70;4.10;;;;;;;-5.70;100.00;97118.16;1027237;28;20030;-71
2024/01/12 01:47:36;;;;;;;4.32;3.92;;;;;;;-5.68;100.00;97113.75;1023433;29;20117;-72
2024/01/12 01:48:07;;;;;;;2.13;2.03;;;;;;;-5.71;100.00;97111.44;1022665;29;20405;-71
2024/01/12 01:48:37;;;;;;;3.70;2.78;;;;;;;-5.77;100.00;97100.00;1020577;29;20809;-71
2024/01/12 01:49:08;;;;;;;10.30;5.40;;;;;;;-5.68;100.00;97108.63;1023073;29;20031;-71
2024/01/12 01:49:38;;;;;;;4.25;3.95;;;;;;;-5.68;100.00;97111.19;1019432;29;20058;-73
2024/01/12 01:50:10;;;;;;;4.45;2.75;;;;;;;-5.66;100.00;97106.78;1023626;28;20619;-72
2024/01/12 01:50:40;;;;;;;5.30;3.45;;;;;;;-5.65;100.00;97110.94;1023649;28;20105;-72
2024/01/12 01:51:11;;;;;;;3.50;3.20;;;;;;;-5.61;100.00;97109.75;1027119;28;20980;-71
2024/01/12 01:51:41;;;;;;;2.80;2.60;;;;;;;-5.66;100.00;97106.78;1023486;29;20031;-71
2024/01/12 01:52:12;;;;;;;1.48;1.48;;;;;;;-5.64;100.00;97110.00;1025567;28;20578;-71
2024/01/12 01:52:43;;;;;;;3.35;3.05;;;;;;;-5.54;100.00;97115.97;1027775;28;20026;-71
2024/01/12 01:53:13;;;;;;;2.17;1.80;;;;;;;-5.65;100.00;97103.28;1031210;28;20022;-71
2024/01/12 01:53:44;;;;;;;2.58;2.45;;;;;;;-5.61;100.00;97106.38;1023339;28;20827;-71
2024/01/12 01:54:14;;;;;;;7.40;4.05;;;;;;;-5.68;100.00;97111.19;1027509;28;20026;-72
2024/01/12 01:54:45;;;;;;;2.50;2.30;;;;;;;-5.69;100.00;97091.69;1019189;29;20028;-71
2024/01/12 01:55:15;;;;;;;4.97;4.50;;;;;;;-5.63;100.00;97111.63;1023182;29;20023;-71
2024/01/12 01:55:46;;;;;;;4.15;2.58;;;;;;;-5.62;100.00;97109.88;1023420;28;20690;-71
2024/01/12 01:56:16;;;;;;;4.13;3.20;;;;;;;-5.63;100.00;97106.53;1027102;28;20422;-72
2024/01/12 01:56:47;;;;;;;3.75;1.85;;;;;;;-5.65;100.00;97110.94;1023500;29;20160;-71
2024/01/12 01:57:17;;;;;;;5.18;2.25;;;;;;;-5.66;100.00;97101.66;1023099;29;20042;-71
2024/01/12 01:57:48;;;;;;;3.65;3.42;;;;;;;-5.75;100.00;97092.19;1025150;28;20035;-71
2024/01/12 01:58:18;;;;;;;2.40;2.22;;;;;;;-5.63;100.00;97106.53;1023548;28;20031;-71
2024/01/12 01:58:49;;;;;;;4.95;1.80;;;;;;;-5.72;100.00;97100.41;1023478;28;20031;-70
2024/01/12 01:59:19;;;;;;;5.97;4.13;;;;;;;-5.68;100.00;97104.34;1023107;28;20059;-71
2024/01/12 01:59:50;;;;;;;2.38;2.25;;;;;;;-5.60;100.00;97108.81;1019475;29;20663;-70
2024/01/12 02:00:20;;;;;;;3.65;3.22;;;;;;;-5.70;100.00;97085.78;1028477;28;20034;-68
2024/01/12 02:00:51;;;;;;;3.97;3.60;;;;;;;-5.52;100.00;97121.78;1022628;28;20446;-72
2024/01/12 02:01:21;;;;;;;3.17;1.73;;;;;;;-5.53;100.00;97112.50;1025349;28;20046;-71
2024/01/12 02:01:52;;;;;;;2.78;2.58;;;;;;;-5.49;100.00;97108.72;1022980;29;20057;-70
2024/01/12 02:02:22;;;;;;;3.33;2.80;;;;;;;-5.50;100.00;97107.13;1020704;29;21698;-71
2024/01/12 02:02:53;;;;;;;1.95;1.85;;;;;;;-5.52;100.00;97098.75;1022878;29;20038;-69
2024/01/12 02:03:23;;;;;;;6.28;5.65;;;;;;;-5.43;100.00;97111.69;1024449;28;20169;-70
2024/01/12 02:03:53;;;;;;;2.22;2.10;;;;;;;-5.43;100.00;97101.47;1022174;29;20034;-71
2024/01/12 02:04:24;;;;;;;0.60;0.60;;;;;;;-5.45;100.00;97109.28;1023012;29;20074;-72
2024/01/12 02:04:55;;;;;;;4.65;4.22;;;;;;;-5.50;100.00;97102.00;1023283;29;20043;-71
2024/01/12 02:05:25;;;;;;;3.50;3.20;;;;;;;-5.51;100.00;97100.38;1023121;28;20614;-70
2024/01/12 02:05:56;;;;;;;2.70;2.58;;;;;;;-5.54;100.00;97105.72;1023344;28;20027;-71
2024/01/12 02:06:27;;;;;;;2.33;2.22;;;;;;;-5.56;100.00;97107.63;1027275;28;20038;-71
2024/01/12 02:06:57;;;;;;;3.80;3.53;;;;;;;-5.64;100.00;97102.31;1027352;28;20336;-71
2024/01/12 02:07:28;;;;;;;2.50;2.40;;;;;;;-5.65;100.00;97103.28;1031340;28;20068;-70
2024/01/12 02:07:58;;;;;;;2.22;1.92;;;;;;;-5.60;100.00;97108.81;1026658;28;20467;-73
2024/01/12 02:08:29;;;;;;;5.18;3.72;;;;;;;-5.62;100.00;97103.03;1023070;29;20035;-72
2024/01/12 02:09:00;;;;;;;5.80;2.63;;;;;;;-5.62;100.00;97108.13;1020305;28;20019;-72
2024/01/12 02:09:32;;;;;;;4.57;3.05;;;;;;;-5.62;100.00;97103.03;1023415;28;20585;-71
2024/01/12 02:10:03;;;;;;;3.22;2.88;;;;;;;-5.70;100.00;97095.16;1026873;28;20805;-72
2024/01/12 02:10:34;;;;;;;2.42;2.25;;;;;;;-5.64;100.00;97107.44;1027803;28;20288;-70
2024/01/12 02:11:04;;;;;;;12.90;5.10;;;;;;;-5.63;100.00;97105.69;1023629;28;20747;-69
2024/01/12 02:11:35;;;;;;;5.28;2.75;;;;;;;-5.58;100.00;97109.50;1026995;28;20031;-72
2024/01/12 02:12:05;;;;;;;4.28;3.17;;;;;;;-5.56;100.00;97107.63;1027525;28;20086;-71
2024/01/12 02:12:37;;;;;;;4.70;3.08;;;;;;;-5.60;100.00;97101.16;1033798;28;20773;-72
2024/01/12 02:13:07;;;;;;;3.67;3.42;;;;;;;-5.57;100.00;97106.00;1035536;28;20041;-71
2024/01/12 02:13:38;;;;;;;3.70;3.00;;;;;;;-5.53;100.00;97109.94;1035021;28;20297;-71
2024/01/12 02:14:08;;;;;;;5.28;4.80;;;;;;;-5.57;100.00;97105.19;1030914;28;20022;-71
2024/01/12 02:14:39;;;;;;;2.90;2.63;;;;;;;-5.57;100.00;97100.88;1025807;28;20030;-71
2024/01/12 02:15:10;;;;;;;5.35;2.83;;;;;;;-5.54;100.00;97105.72;1026983;28;20457;-71
2024/01/12 02:15:40;;;;;;;2.47;2.35;;;;;;;-5.53;100.00;97104.00;1027043;28;20154;-71
2024/01/12 02:16:10;;;;;;;11.77;4.35;;;;;;;-5.54;100.00;97103.19;1027181;28;20078;-73
2024/01/12 02:16:41;;;;;;;4.35;3.40;;;;;;;-5.55;100.00;97104.13;1027149;28;20030;-71
2024/01/12 02:17:11;;;;;;;2.17;2.08;;;;;;;-5.53;100.00;97102.25;1027169;28;20033;-70
2024/01/12 02:17:43;;;;;;;3.60;1.48;;;;;;;-5.48;100.00;97105.22;1033652;28;20022;-71
2024/01/12 02:18:13;;;;;;;4.82;4.38;;;;;;;-5.45;100.00;97099.06;1031609;28;20131;-71
2024/01/12 02:18:44;;;;;;;4.43;2.42;;;;;;;-5.48;100.00;97096.75;1031139;28;20544;-71
2024/01/12 02:19:14;;;;;;;10.52;4.15;;;;;;;-5.50;100.00;97099.44;1027421;28;20034;-71
2024/01/12 02:19:44;;;;;;;4.00;3.75;;;;;;;-5.52;100.00;97091.09;1035190;28;20026;-71
2024/01/12 02:20:15;;;;;;;3.22;2.95;;;;;;;-5.49;100.00;97090.84;1035429;28;20021;-71
2024/01/12 02:20:47;;;;;;;4.82;3.38;;;;;;;-5.50;100.00;97090.94;1031250;28;20525;-71
2024/01/12 02:21:18;;;;;;;11.10;3.13;;;;;;;-5.59;100.00;97087.44;1031243;28;20528;-71
2024/01/12 02:21:48;;;;;;;7.75;4.28;;;;;;;-5.54;100.00;97089.59;1031145;28;20266;-71
2024/01/12 02:22:21;;;;;;;7.97;2.15;;;;;;;-5.59;100.00;97087.44;1030733;28;20528;-71
2024/01/12 02:22:51;;;;;;;3.72;3.33;;;;;;;-5.65;100.00;97087.13;1030663;28;20053;-69